sensor_id;sensor_type;location;lat;lon;timestamp;temperature;humidity
69162;DHT22;56269;51.738;21.652;2023-08-31T00:00:44;15.83;99.99
69162;DHT22;56269;51.738;21.652;2023-08-31T00:03:28;15.85;99.99
69162;DHT22;56269;51.738;21.652;2023-08-31T00:05:54;15.82;99.99
69162;DHT22;56269;51.738;21.652;2023-08-31T00:08:21;15.81;99.99
69162;DHT22;56269;51.738;21.652;2023-08-31T00:10:58;15.81;99.99
69162;DHT22;56269;51.738;21.652;2023-08-31T00:13:26;15.79;99.99
69162;DHT22;56269;51.738;21.652;2023-08-31T00:15:56;15.77;99.99
69162;DHT22;56269;51.738;21.652;2023-08-31T00:18:25;15.77;99.99
69162;DHT22;56269;51.738;21.652;2023-08-31T00:20:52;15.77;99.99
69162;DHT22;56269;51.738;21.652;2023-08-31T00:23:18;15.77;99.99
69162;DHT22;56269;51.738;21.652;2023-08-31T00:25:46;15.79;99.99
69162;DHT22;56269;51.738;21.652;2023-08-31T00:28:14;15.77;99.99
69162;DHT22;56269;51.738;21.652;2023-08-31T00:30:42;15.75;99.99
69162;DHT22;56269;51.738;21.652;2023-08-31T00:33:13;15.72;99.99
69162;DHT22;56269;51.738;21.652;2023-08-31T00:35:40;15.78;99.99
69162;DHT22;56269;51.738;21.652;2023-08-31T00:38:12;15.75;99.99
69162;DHT22;56269;51.738;21.652;2023-08-31T00:40:42;15.73;99.99
69162;DHT22;56269;51.738;21.652;2023-08-31T00:43:10;15.71;99.99
69162;DHT22;56269;51.738;21.652;2023-08-31T00:45:37;15.69;99.99
69162;DHT22;56269;51.738;21.652;2023-08-31T00:48:06;15.71;99.99
69162;DHT22;56269;51.738;21.652;2023-08-31T00:50:33;15.72;99.99
69162;DHT22;56269;51.738;21.652;2023-08-31T00:52:59;15.73;99.99
69162;DHT22;56269;51.738;21.652;2023-08-31T00:55:25;15.72;99.99
69162;DHT22;56269;51.738;21.652;2023-08-31T00:57:52;15.71;99.99
69162;DHT22;56269;51.738;21.652;2023-08-31T01:00:18;15.69;99.99
69162;DHT22;56269;51.738;21.652;2023-08-31T01:03:07;15.66;99.99
69162;DHT22;56269;51.738;21.652;2023-08-31T01:05:45;15.68;99.99
69162;DHT22;56269;51.738;21.652;2023-08-31T01:13:36;15.61;99.99
69162;DHT22;56269;51.738;21.652;2023-08-31T01:16:06;15.57;99.99
69162;DHT22;56269;51.738;21.652;2023-08-31T01:18:35;15.57;99.99
69162;DHT22;56269;51.738;21.652;2023-08-31T01:23:53;15.50;99.99
69162;DHT22;56269;51.738;21.652;2023-08-31T01:26:20;15.45;99.99
69162;DHT22;56269;51.738;21.652;2023-08-31T01:28:47;15.42;99.99
69162;DHT22;56269;51.738;21.652;2023-08-31T01:31:14;15.40;99.99
69162;DHT22;56269;51.738;21.652;2023-08-31T01:33:41;15.40;99.99
69162;DHT22;56269;51.738;21.652;2023-08-31T01:36:28;15.37;99.99
69162;DHT22;56269;51.738;21.652;2023-08-31T01:39:11;15.34;99.99
69162;DHT22;56269;51.738;21.652;2023-08-31T01:41:42;15.30;99.99
69162;DHT22;56269;51.738;21.652;2023-08-31T01:44:16;15.27;99.99
69162;DHT22;56269;51.738;21.652;2023-08-31T01:46:46;15.27;99.99
69162;DHT22;56269;51.738;21.652;2023-08-31T01:49:12;15.28;99.99
69162;DHT22;56269;51.738;21.652;2023-08-31T01:51:40;15.26;99.99
69162;DHT22;56269;51.738;21.652;2023-08-31T01:54:06;15.28;99.99
69162;DHT22;56269;51.738;21.652;2023-08-31T01:56:32;15.30;99.99
69162;DHT22;56269;51.738;21.652;2023-08-31T01:58:58;15.31;99.99
69162;DHT22;56269;51.738;21.652;2023-08-31T02:01:25;15.35;99.99
69162;DHT22;56269;51.738;21.652;2023-08-31T02:03:50;15.35;99.99
69162;DHT22;56269;51.738;21.652;2023-08-31T02:06:17;15.35;99.99
69162;DHT22;56269;51.738;21.652;2023-08-31T02:08:43;15.38;99.99
69162;DHT22;56269;51.738;21.652;2023-08-31T02:11:13;15.42;99.99
69162;DHT22;56269;51.738;21.652;2023-08-31T02:13:40;15.42;99.99
69162;DHT22;56269;51.738;21.652;2023-08-31T02:16:07;15.41;99.99
69162;DHT22;56269;51.738;21.652;2023-08-31T02:18:33;15.42;99.99
69162;DHT22;56269;51.738;21.652;2023-08-31T02:21:01;15.42;99.99
69162;DHT22;56269;51.738;21.652;2023-08-31T02:23:29;15.44;99.99
69162;DHT22;56269;51.738;21.652;2023-08-31T02:25:56;15.44;99.99
69162;DHT22;56269;51.738;21.652;2023-08-31T02:28:22;15.44;99.99
69162;DHT22;56269;51.738;21.652;2023-08-31T02:30:57;15.41;99.99
69162;DHT22;56269;51.738;21.652;2023-08-31T02:33:24;15.40;99.99
69162;DHT22;56269;51.738;21.652;2023-08-31T02:35:50;15.41;99.99
69162;DHT22;56269;51.738;21.652;2023-08-31T02:38:16;15.38;99.99
69162;DHT22;56269;51.738;21.652;2023-08-31T02:40:46;15.38;99.99
69162;DHT22;56269;51.738;21.652;2023-08-31T02:43:12;15.38;99.99
69162;DHT22;56269;51.738;21.652;2023-08-31T02:45:39;15.41;99.99
69162;DHT22;56269;51.738;21.652;2023-08-31T02:48:07;15.38;99.99
69162;DHT22;56269;51.738;21.652;2023-08-31T02:50:34;15.40;99.99
69162;DHT22;56269;51.738;21.652;2023-08-31T02:53:01;15.38;99.99
69162;DHT22;56269;51.738;21.652;2023-08-31T02:55:27;15.38;99.99
69162;DHT22;56269;51.738;21.652;2023-08-31T02:57:54;15.38;99.99
69162;DHT22;56269;51.738;21.652;2023-08-31T03:00:21;15.41;99.99
69162;DHT22;56269;51.738;21.652;2023-08-31T03:02:48;15.35;99.99
69162;DHT22;56269;51.738;21.652;2023-08-31T03:05:14;15.34;99.99
69162;DHT22;56269;51.738;21.652;2023-08-31T03:07:41;15.37;99.99
69162;DHT22;56269;51.738;21.652;2023-08-31T03:10:08;15.37;99.99
69162;DHT22;56269;51.738;21.652;2023-08-31T03:12:34;15.34;99.99
69162;DHT22;56269;51.738;21.652;2023-08-31T03:15:00;15.34;99.99
69162;DHT22;56269;51.738;21.652;2023-08-31T03:17:26;15.34;99.99
69162;DHT22;56269;51.738;21.652;2023-08-31T03:19:53;15.37;99.99
69162;DHT22;56269;51.738;21.652;2023-08-31T03:22:19;15.35;99.99
69162;DHT22;56269;51.738;21.652;2023-08-31T03:24:45;15.34;99.99
69162;DHT22;56269;51.738;21.652;2023-08-31T03:27:11;15.37;99.99
69162;DHT22;56269;51.738;21.652;2023-08-31T03:29:37;15.34;99.99
69162;DHT22;56269;51.738;21.652;2023-08-31T03:32:05;15.30;99.99
69162;DHT22;56269;51.738;21.652;2023-08-31T03:34:32;15.31;99.99
69162;DHT22;56269;51.738;21.652;2023-08-31T03:36:58;15.32;99.99
69162;DHT22;56269;51.738;21.652;2023-08-31T03:39:25;15.30;99.99
69162;DHT22;56269;51.738;21.652;2023-08-31T03:41:51;15.31;99.99
69162;DHT22;56269;51.738;21.652;2023-08-31T03:44:18;15.28;99.99
69162;DHT22;56269;51.738;21.652;2023-08-31T03:46:44;15.28;99.99
69162;DHT22;56269;51.738;21.652;2023-08-31T03:49:10;15.24;99.99
69162;DHT22;56269;51.738;21.652;2023-08-31T03:51:36;15.24;99.99
69162;DHT22;56269;51.738;21.652;2023-08-31T03:54:02;15.21;99.99
69162;DHT22;56269;51.738;21.652;2023-08-31T03:56:28;15.20;99.99
69162;DHT22;56269;51.738;21.652;2023-08-31T03:58:54;15.19;99.99
69162;DHT22;56269;51.738;21.652;2023-08-31T04:01:22;15.16;99.99
69162;DHT22;56269;51.738;21.652;2023-08-31T04:03:49;15.21;99.99
69162;DHT22;56269;51.738;21.652;2023-08-31T04:06:17;15.21;99.99
69162;DHT22;56269;51.738;21.652;2023-08-31T04:08:43;15.24;99.99
69162;DHT22;56269;51.738;21.652;2023-08-31T04:11:09;15.21;99.99
69162;DHT22;56269;51.738;21.652;2023-08-31T04:13:36;15.21;99.99
69162;DHT22;56269;51.738;21.652;2023-08-31T04:16:02;15.21;99.99
69162;DHT22;56269;51.738;21.652;2023-08-31T04:18:29;15.16;99.99
69162;DHT22;56269;51.738;21.652;2023-08-31T04:20:57;15.16;99.99
69162;DHT22;56269;51.738;21.652;2023-08-31T04:23:25;15.19;99.99
69162;DHT22;56269;51.738;21.652;2023-08-31T04:25:51;15.17;99.99
69162;DHT22;56269;51.738;21.652;2023-08-31T04:28:17;15.14;99.99
69162;DHT22;56269;51.738;21.652;2023-08-31T04:30:43;15.16;99.99
69162;DHT22;56269;51.738;21.652;2023-08-31T04:33:10;15.14;99.99
69162;DHT22;56269;51.738;21.652;2023-08-31T04:35:36;15.14;99.99
69162;DHT22;56269;51.738;21.652;2023-08-31T04:38:03;15.16;99.99
69162;DHT22;56269;51.738;21.652;2023-08-31T04:40:29;15.17;99.99
69162;DHT22;56269;51.738;21.652;2023-08-31T04:42:57;15.20;99.99
69162;DHT22;56269;51.738;21.652;2023-08-31T04:45:23;15.17;99.99
69162;DHT22;56269;51.738;21.652;2023-08-31T04:47:49;15.16;99.99
69162;DHT22;56269;51.738;21.652;2023-08-31T04:50:16;15.21;99.99
69162;DHT22;56269;51.738;21.652;2023-08-31T04:52:43;15.20;99.99
69162;DHT22;56269;51.738;21.652;2023-08-31T04:55:09;15.24;99.99
69162;DHT22;56269;51.738;21.652;2023-08-31T04:57:39;15.24;99.99
69162;DHT22;56269;51.738;21.652;2023-08-31T05:00:06;15.26;99.99
69162;DHT22;56269;51.738;21.652;2023-08-31T05:02:35;15.34;99.99
69162;DHT22;56269;51.738;21.652;2023-08-31T05:05:01;15.40;99.99
69162;DHT22;56269;51.738;21.652;2023-08-31T05:07:27;15.40;99.99
69162;DHT22;56269;51.738;21.652;2023-08-31T05:09:53;15.44;99.99
69162;DHT22;56269;51.738;21.652;2023-08-31T05:12:19;15.50;99.99
69162;DHT22;56269;51.738;21.652;2023-08-31T05:14:45;15.54;99.99
69162;DHT22;56269;51.738;21.652;2023-08-31T05:17:11;15.57;99.99
69162;DHT22;56269;51.738;21.652;2023-08-31T05:19:38;15.61;99.99
69162;DHT22;56269;51.738;21.652;2023-08-31T05:22:05;15.66;99.99
69162;DHT22;56269;51.738;21.652;2023-08-31T05:24:31;15.62;99.99
69162;DHT22;56269;51.738;21.652;2023-08-31T05:26:58;15.61;99.99
69162;DHT22;56269;51.738;21.652;2023-08-31T05:29:24;15.63;99.99
69162;DHT22;56269;51.738;21.652;2023-08-31T05:31:51;15.71;99.99
69162;DHT22;56269;51.738;21.652;2023-08-31T05:34:20;15.71;99.99
69162;DHT22;56269;51.738;21.652;2023-08-31T05:36:47;15.78;99.99
69162;DHT22;56269;51.738;21.652;2023-08-31T05:39:13;15.75;99.99
69162;DHT22;56269;51.738;21.652;2023-08-31T05:41:43;15.72;99.99
69162;DHT22;56269;51.738;21.652;2023-08-31T05:44:10;15.73;99.99
69162;DHT22;56269;51.738;21.652;2023-08-31T05:46:36;15.69;99.99
69162;DHT22;56269;51.738;21.652;2023-08-31T05:49:04;15.71;99.99
69162;DHT22;56269;51.738;21.652;2023-08-31T05:51:30;15.66;99.99
69162;DHT22;56269;51.738;21.652;2023-08-31T05:53:56;15.66;99.99
69162;DHT22;56269;51.738;21.652;2023-08-31T05:56:22;15.75;99.99
69162;DHT22;56269;51.738;21.652;2023-08-31T05:58:48;15.72;99.99
69162;DHT22;56269;51.738;21.652;2023-08-31T06:01:16;15.75;99.99
69162;DHT22;56269;51.738;21.652;2023-08-31T06:03:42;15.81;99.99
69162;DHT22;56269;51.738;21.652;2023-08-31T06:06:09;15.85;99.93
69162;DHT22;56269;51.738;21.652;2023-08-31T06:08:35;16.02;99.74
69162;DHT22;56269;51.738;21.652;2023-08-31T06:11:01;16.23;99.40
69162;DHT22;56269;51.738;21.652;2023-08-31T06:13:29;16.59;98.15
69162;DHT22;56269;51.738;21.652;2023-08-31T06:15:56;16.81;97.18
69162;DHT22;56269;51.738;21.652;2023-08-31T06:18:23;17.00;96.11
69162;DHT22;56269;51.738;21.652;2023-08-31T06:20:50;16.96;96.06
69162;DHT22;56269;51.738;21.652;2023-08-31T06:23:16;16.92;95.94
69162;DHT22;56269;51.738;21.652;2023-08-31T06:25:42;16.96;96.48
69162;DHT22;56269;51.738;21.652;2023-08-31T06:28:08;17.05;96.43
69162;DHT22;56269;51.738;21.652;2023-08-31T06:30:37;17.00;96.36
69162;DHT22;56269;51.738;21.652;2023-08-31T06:33:04;17.04;95.68
69162;DHT22;56269;51.738;21.652;2023-08-31T06:35:31;17.10;95.40
69162;DHT22;56269;51.738;21.652;2023-08-31T06:37:57;17.21;95.89
69162;DHT22;56269;51.738;21.652;2023-08-31T06:40:24;17.12;94.86
69162;DHT22;56269;51.738;21.652;2023-08-31T06:42:50;17.04;95.49
69162;DHT22;56269;51.738;21.652;2023-08-31T06:45:17;17.01;95.76
69162;DHT22;56269;51.738;21.652;2023-08-31T06:47:43;16.81;96.17
69162;DHT22;56269;51.738;21.652;2023-08-31T06:50:09;16.68;96.26
69162;DHT22;56269;51.738;21.652;2023-08-31T06:52:36;16.61;96.29
69162;DHT22;56269;51.738;21.652;2023-08-31T06:55:02;16.60;96.61
69162;DHT22;56269;51.738;21.652;2023-08-31T06:57:29;16.64;96.50
69162;DHT22;56269;51.738;21.652;2023-08-31T06:59:55;16.61;96.79
69162;DHT22;56269;51.738;21.652;2023-08-31T07:02:21;16.57;96.35
69162;DHT22;56269;51.738;21.652;2023-08-31T07:04:51;16.53;96.17
69162;DHT22;56269;51.738;21.652;2023-08-31T07:07:18;16.44;96.19
69162;DHT22;56269;51.738;21.652;2023-08-31T07:09:46;16.53;96.79
69162;DHT22;56269;51.738;21.652;2023-08-31T07:12:13;16.67;96.49
69162;DHT22;56269;51.738;21.652;2023-08-31T07:14:39;16.67;95.61
69162;DHT22;56269;51.738;21.652;2023-08-31T07:17:05;16.83;95.21
69162;DHT22;56269;51.738;21.652;2023-08-31T07:19:35;16.89;95.12
69162;DHT22;56269;51.738;21.652;2023-08-31T07:22:01;16.96;94.88
69162;DHT22;56269;51.738;21.652;2023-08-31T07:24:30;17.02;94.70
69162;DHT22;56269;51.738;21.652;2023-08-31T07:26:56;17.16;94.59
69162;DHT22;56269;51.738;21.652;2023-08-31T07:29:24;17.35;93.44
69162;DHT22;56269;51.738;21.652;2023-08-31T07:31:50;17.75;93.18
69162;DHT22;56269;51.738;21.652;2023-08-31T07:34:16;18.00;91.58
69162;DHT22;56269;51.738;21.652;2023-08-31T07:36:43;18.30;91.64
69162;DHT22;56269;51.738;21.652;2023-08-31T07:39:10;18.45;90.88
69162;DHT22;56269;51.738;21.652;2023-08-31T07:41:36;18.40;89.57
69162;DHT22;56269;51.738;21.652;2023-08-31T07:44:03;18.23;89.58
69162;DHT22;56269;51.738;21.652;2023-08-31T07:46:29;18.37;88.54
69162;DHT22;56269;51.738;21.652;2023-08-31T07:48:55;18.52;89.06
69162;DHT22;56269;51.738;21.652;2023-08-31T07:51:21;18.76;88.47
69162;DHT22;56269;51.738;21.652;2023-08-31T07:53:49;18.65;89.01
69162;DHT22;56269;51.738;21.652;2023-08-31T07:56:15;18.82;88.80
69162;DHT22;56269;51.738;21.652;2023-08-31T07:58:42;18.72;87.18
69162;DHT22;56269;51.738;21.652;2023-08-31T08:01:08;18.65;87.94
69162;DHT22;56269;51.738;21.652;2023-08-31T08:03:34;18.67;88.24
69162;DHT22;56269;51.738;21.652;2023-08-31T08:06:00;18.75;87.59
69162;DHT22;56269;51.738;21.652;2023-08-31T08:08:26;18.95;87.34
69162;DHT22;56269;51.738;21.652;2023-08-31T08:10:54;18.81;87.18
69162;DHT22;56269;51.738;21.652;2023-08-31T08:13:20;18.84;87.41
69162;DHT22;56269;51.738;21.652;2023-08-31T08:15:47;19.00;85.94
69162;DHT22;56269;51.738;21.652;2023-08-31T08:18:13;19.10;86.48
69162;DHT22;56269;51.738;21.652;2023-08-31T08:20:39;20.08;82.85
69162;DHT22;56269;51.738;21.652;2023-08-31T08:23:06;20.89;82.13
69162;DHT22;56269;51.738;21.652;2023-08-31T08:25:33;21.40;80.24
69162;DHT22;56269;51.738;21.652;2023-08-31T08:28:02;21.71;78.30
69162;DHT22;56269;51.738;21.652;2023-08-31T08:30:29;21.86;77.17
69162;DHT22;56269;51.738;21.652;2023-08-31T08:32:55;22.02;78.53
69162;DHT22;56269;51.738;21.652;2023-08-31T08:35:21;22.28;75.46
69162;DHT22;56269;51.738;21.652;2023-08-31T08:37:47;21.59;76.99
69162;DHT22;56269;51.738;21.652;2023-08-31T08:40:13;21.04;77.71
69162;DHT22;56269;51.738;21.652;2023-08-31T08:42:42;21.59;78.74
69162;DHT22;56269;51.738;21.652;2023-08-31T08:45:13;21.40;77.58
69162;DHT22;56269;51.738;21.652;2023-08-31T08:47:43;20.76;77.45
69162;DHT22;56269;51.738;21.652;2023-08-31T08:50:11;21.33;78.76
69162;DHT22;56269;51.738;21.652;2023-08-31T08:52:39;21.48;76.57
69162;DHT22;56269;51.738;21.652;2023-08-31T08:55:05;20.82;76.28
69162;DHT22;56269;51.738;21.652;2023-08-31T08:57:32;20.56;77.40
69162;DHT22;56269;51.738;21.652;2023-08-31T08:59:59;21.01;76.69
69162;DHT22;56269;51.738;21.652;2023-08-31T09:02:26;21.81;76.90
69162;DHT22;56269;51.738;21.652;2023-08-31T09:04:52;21.69;75.96
69162;DHT22;56269;51.738;21.652;2023-08-31T09:07:21;21.92;76.03
69162;DHT22;56269;51.738;21.652;2023-08-31T09:09:52;21.93;73.16
69162;DHT22;56269;51.738;21.652;2023-08-31T09:12:22;21.82;76.14
69162;DHT22;56269;51.738;21.652;2023-08-31T09:15:02;20.96;77.15
69162;DHT22;56269;51.738;21.652;2023-08-31T09:17:43;21.15;76.97
69162;DHT22;56269;51.738;21.652;2023-08-31T09:20:13;20.80;76.88
69162;DHT22;56269;51.738;21.652;2023-08-31T09:22:42;20.01;78.30
69162;DHT22;56269;51.738;21.652;2023-08-31T09:25:11;20.01;79.71
69162;DHT22;56269;51.738;21.652;2023-08-31T09:27:38;19.66;78.72
69162;DHT22;56269;51.738;21.652;2023-08-31T09:30:08;20.31;78.90
69162;DHT22;56269;51.738;21.652;2023-08-31T09:32:35;21.28;76.64
69162;DHT22;56269;51.738;21.652;2023-08-31T09:35:02;21.10;75.96
69162;DHT22;56269;51.738;21.652;2023-08-31T09:37:29;21.68;74.85
69162;DHT22;56269;51.738;21.652;2023-08-31T09:39:55;22.08;74.52
69162;DHT22;56269;51.738;21.652;2023-08-31T09:42:22;22.12;73.55
69162;DHT22;56269;51.738;21.652;2023-08-31T09:44:49;22.03;74.66
69162;DHT22;56269;51.738;21.652;2023-08-31T09:47:17;22.61;74.30
69162;DHT22;56269;51.738;21.652;2023-08-31T09:49:43;22.74;72.91
69162;DHT22;56269;51.738;21.652;2023-08-31T09:52:11;23.24;70.57
69162;DHT22;56269;51.738;21.652;2023-08-31T09:54:39;23.19;69.99
69162;DHT22;56269;51.738;21.652;2023-08-31T09:57:05;23.11;72.00
69162;DHT22;56269;51.738;21.652;2023-08-31T09:59:32;22.64;70.03
69162;DHT22;56269;51.738;21.652;2023-08-31T10:01:59;22.02;72.09
69162;DHT22;56269;51.738;21.652;2023-08-31T10:04:29;21.41;74.64
69162;DHT22;56269;51.738;21.652;2023-08-31T10:06:56;21.40;73.17
69162;DHT22;56269;51.738;21.652;2023-08-31T10:09:23;22.28;70.39
69162;DHT22;56269;51.738;21.652;2023-08-31T10:11:50;22.98;69.37
69162;DHT22;56269;51.738;21.652;2023-08-31T10:14:17;22.70;70.46
69162;DHT22;56269;51.738;21.652;2023-08-31T10:16:48;22.56;68.73
69162;DHT22;56269;51.738;21.652;2023-08-31T10:19:15;23.18;69.19
69162;DHT22;56269;51.738;21.652;2023-08-31T10:21:41;23.69;67.26
69162;DHT22;56269;51.738;21.652;2023-08-31T10:24:09;23.82;65.94
69162;DHT22;56269;51.738;21.652;2023-08-31T10:26:36;23.12;65.77
69162;DHT22;56269;51.738;21.652;2023-08-31T10:29:02;23.70;67.20
69162;DHT22;56269;51.738;21.652;2023-08-31T10:31:32;23.90;66.49
69162;DHT22;56269;51.738;21.652;2023-08-31T10:34:03;23.08;66.68
69162;DHT22;56269;51.738;21.652;2023-08-31T10:36:46;23.37;65.26
69162;DHT22;56269;51.738;21.652;2023-08-31T10:43:15;23.05;66.12
69162;DHT22;56269;51.738;21.652;2023-08-31T10:45:45;22.83;66.62
69162;DHT22;56269;51.738;21.652;2023-08-31T10:48:11;22.44;70.64
69162;DHT22;56269;51.738;21.652;2023-08-31T10:50:45;22.59;69.48
69162;DHT22;56269;51.738;21.652;2023-08-31T10:53:13;22.35;68.46
69162;DHT22;56269;51.738;21.652;2023-08-31T10:55:51;22.98;68.35
69162;DHT22;56269;51.738;21.652;2023-08-31T10:58:18;22.67;67.46
69162;DHT22;56269;51.738;21.652;2023-08-31T11:00:52;21.84;69.83
69162;DHT22;56269;51.738;21.652;2023-08-31T11:03:18;21.72;70.84
69162;DHT22;56269;51.738;21.652;2023-08-31T11:05:52;22.76;70.62
69162;DHT22;56269;51.738;21.652;2023-08-31T11:08:25;23.66;67.18
69162;DHT22;56269;51.738;21.652;2023-08-31T11:10:52;24.07;68.97
69162;DHT22;56269;51.738;21.652;2023-08-31T11:13:19;24.43;65.76
69162;DHT22;56269;51.738;21.652;2023-08-31T11:15:46;23.58;66.69
69162;DHT22;56269;51.738;21.652;2023-08-31T11:18:13;24.30;66.90
69162;DHT22;56269;51.738;21.652;2023-08-31T11:20:42;23.90;65.02
69162;DHT22;56269;51.738;21.652;2023-08-31T11:23:08;23.44;66.38
69162;DHT22;56269;51.738;21.652;2023-08-31T11:25:34;24.27;67.38
69162;DHT22;56269;51.738;21.652;2023-08-31T11:28:03;24.26;64.72
69162;DHT22;56269;51.738;21.652;2023-08-31T11:30:33;24.31;62.96
69162;DHT22;56269;51.738;21.652;2023-08-31T11:33:17;24.68;62.96
69162;DHT22;56269;51.738;21.652;2023-08-31T11:35:44;24.60;60.92
69162;DHT22;56269;51.738;21.652;2023-08-31T11:38:10;24.07;61.26
69162;DHT22;56269;51.738;21.652;2023-08-31T11:40:38;23.83;63.44
69162;DHT22;56269;51.738;21.652;2023-08-31T11:43:07;23.07;62.74
69162;DHT22;56269;51.738;21.652;2023-08-31T11:45:35;23.29;62.33
69162;DHT22;56269;51.738;21.652;2023-08-31T11:48:01;23.00;62.47
69162;DHT22;56269;51.738;21.652;2023-08-31T11:50:29;22.97;66.16
69162;DHT22;56269;51.738;21.652;2023-08-31T11:52:55;22.76;65.92
69162;DHT22;56269;51.738;21.652;2023-08-31T11:55:21;22.09;66.63
69162;DHT22;56269;51.738;21.652;2023-08-31T11:57:52;22.05;67.60
69162;DHT22;56269;51.738;21.652;2023-08-31T12:00:21;22.30;68.19
69162;DHT22;56269;51.738;21.652;2023-08-31T12:02:57;23.05;67.45
69162;DHT22;56269;51.738;21.652;2023-08-31T12:05:25;22.46;64.78
69162;DHT22;56269;51.738;21.652;2023-08-31T12:07:53;21.71;67.99
69162;DHT22;56269;51.738;21.652;2023-08-31T12:10:20;21.68;70.21
69162;DHT22;56269;51.738;21.652;2023-08-31T12:12:47;21.61;69.27
69162;DHT22;56269;51.738;21.652;2023-08-31T12:15:13;21.84;67.52
69162;DHT22;56269;51.738;21.652;2023-08-31T12:17:39;22.29;68.15
69162;DHT22;56269;51.738;21.652;2023-08-31T12:20:06;22.90;65.90
69162;DHT22;56269;51.738;21.652;2023-08-31T12:22:33;23.56;63.96
69162;DHT22;56269;51.738;21.652;2023-08-31T12:24:59;24.44;63.89
69162;DHT22;56269;51.738;21.652;2023-08-31T12:27:25;23.96;61.83
69162;DHT22;56269;51.738;21.652;2023-08-31T12:29:52;24.37;60.42
69162;DHT22;56269;51.738;21.652;2023-08-31T12:32:18;24.69;60.06
69162;DHT22;56269;51.738;21.652;2023-08-31T12:34:45;24.78;59.20
69162;DHT22;56269;51.738;21.652;2023-08-31T12:37:12;24.79;58.80
69162;DHT22;56269;51.738;21.652;2023-08-31T12:39:39;25.12;59.06
69162;DHT22;56269;51.738;21.652;2023-08-31T12:42:08;24.69;59.55
69162;DHT22;56269;51.738;21.652;2023-08-31T12:44:34;24.24;62.32
69162;DHT22;56269;51.738;21.652;2023-08-31T12:47:00;23.46;62.68
69162;DHT22;56269;51.738;21.652;2023-08-31T12:49:26;23.77;60.73
69162;DHT22;56269;51.738;21.652;2023-08-31T12:51:53;24.34;60.39
69162;DHT22;56269;51.738;21.652;2023-08-31T12:54:19;24.69;57.92
69162;DHT22;56269;51.738;21.652;2023-08-31T12:56:45;24.77;60.09
69162;DHT22;56269;51.738;21.652;2023-08-31T12:59:11;25.02;63.02
69162;DHT22;56269;51.738;21.652;2023-08-31T13:01:37;25.53;60.17
69162;DHT22;56269;51.738;21.652;2023-08-31T13:04:04;25.39;58.49
69162;DHT22;56269;51.738;21.652;2023-08-31T13:06:31;24.61;58.93
69162;DHT22;56269;51.738;21.652;2023-08-31T13:08:57;23.82;61.44
69162;DHT22;56269;51.738;21.652;2023-08-31T13:11:23;23.25;63.17
69162;DHT22;56269;51.738;21.652;2023-08-31T13:13:49;23.29;63.89
69162;DHT22;56269;51.738;21.652;2023-08-31T13:16:19;22.95;64.57
69162;DHT22;56269;51.738;21.652;2023-08-31T13:18:47;23.03;64.88
69162;DHT22;56269;51.738;21.652;2023-08-31T13:21:14;23.69;64.94
69162;DHT22;56269;51.738;21.652;2023-08-31T13:23:40;23.85;63.64
69162;DHT22;56269;51.738;21.652;2023-08-31T13:26:08;23.86;61.84
69162;DHT22;56269;51.738;21.652;2023-08-31T13:28:35;23.59;64.94
69162;DHT22;56269;51.738;21.652;2023-08-31T13:31:02;24.27;62.41
69162;DHT22;56269;51.738;21.652;2023-08-31T13:33:29;23.93;63.01
69162;DHT22;56269;51.738;21.652;2023-08-31T13:35:58;23.52;62.82
69162;DHT22;56269;51.738;21.652;2023-08-31T13:38:25;22.95;65.14
69162;DHT22;56269;51.738;21.652;2023-08-31T13:40:55;22.64;65.75
69162;DHT22;56269;51.738;21.652;2023-08-31T13:43:24;23.04;65.91
69162;DHT22;56269;51.738;21.652;2023-08-31T13:45:52;23.77;65.37
69162;DHT22;56269;51.738;21.652;2023-08-31T13:48:19;24.37;64.31
69162;DHT22;56269;51.738;21.652;2023-08-31T13:50:46;24.46;62.36
69162;DHT22;56269;51.738;21.652;2023-08-31T13:53:12;24.47;62.76
69162;DHT22;56269;51.738;21.652;2023-08-31T13:55:39;24.79;62.74
69162;DHT22;56269;51.738;21.652;2023-08-31T13:58:06;24.51;60.46
69162;DHT22;56269;51.738;21.652;2023-08-31T14:00:36;24.41;60.61
69162;DHT22;56269;51.738;21.652;2023-08-31T14:03:03;24.65;61.27
69162;DHT22;56269;51.738;21.652;2023-08-31T14:05:30;24.20;60.28
69162;DHT22;56269;51.738;21.652;2023-08-31T14:07:57;24.05;59.91
69162;DHT22;56269;51.738;21.652;2023-08-31T14:10:24;24.48;58.83
69162;DHT22;56269;51.738;21.652;2023-08-31T14:12:51;24.46;61.43
69162;DHT22;56269;51.738;21.652;2023-08-31T14:15:17;24.56;60.95
69162;DHT22;56269;51.738;21.652;2023-08-31T14:17:43;24.31;60.54
69162;DHT22;56269;51.738;21.652;2023-08-31T14:20:10;24.41;60.60
69162;DHT22;56269;51.738;21.652;2023-08-31T14:22:37;24.75;60.72
69162;DHT22;56269;51.738;21.652;2023-08-31T14:25:12;24.71;60.14
69162;DHT22;56269;51.738;21.652;2023-08-31T14:27:38;24.77;60.87
69162;DHT22;56269;51.738;21.652;2023-08-31T14:30:06;24.26;62.62
69162;DHT22;56269;51.738;21.652;2023-08-31T14:32:32;23.70;61.81
69162;DHT22;56269;51.738;21.652;2023-08-31T14:34:59;23.55;62.28
69162;DHT22;56269;51.738;21.652;2023-08-31T14:37:25;23.15;62.42
69162;DHT22;56269;51.738;21.652;2023-08-31T14:39:53;23.29;62.87
69162;DHT22;56269;51.738;21.652;2023-08-31T14:42:20;23.38;62.75
69162;DHT22;56269;51.738;21.652;2023-08-31T14:44:48;23.17;63.83
69162;DHT22;56269;51.738;21.652;2023-08-31T14:47:14;23.48;63.86
69162;DHT22;56269;51.738;21.652;2023-08-31T14:49:41;22.94;63.59
69162;DHT22;56269;51.738;21.652;2023-08-31T14:52:08;22.43;65.20
69162;DHT22;56269;51.738;21.652;2023-08-31T14:54:34;22.05;66.01
69162;DHT22;56269;51.738;21.652;2023-08-31T14:57:01;21.81;66.42
69162;DHT22;56269;51.738;21.652;2023-08-31T14:59:32;21.50;67.96
69162;DHT22;56269;51.738;21.652;2023-08-31T15:01:59;21.30;67.47
69162;DHT22;56269;51.738;21.652;2023-08-31T15:04:32;21.19;68.86
69162;DHT22;56269;51.738;21.652;2023-08-31T15:06:58;21.06;69.65
69162;DHT22;56269;51.738;21.652;2023-08-31T15:09:26;20.94;70.93
69162;DHT22;56269;51.738;21.652;2023-08-31T15:11:52;20.94;70.84
69162;DHT22;56269;51.738;21.652;2023-08-31T15:14:19;20.99;72.24
69162;DHT22;56269;51.738;21.652;2023-08-31T15:16:46;21.11;72.88
69162;DHT22;56269;51.738;21.652;2023-08-31T15:19:13;21.23;71.39
69162;DHT22;56269;51.738;21.652;2023-08-31T15:21:40;21.26;72.10
69162;DHT22;56269;51.738;21.652;2023-08-31T15:24:06;21.10;72.05
69162;DHT22;56269;51.738;21.652;2023-08-31T15:26:33;21.14;71.81
69162;DHT22;56269;51.738;21.652;2023-08-31T15:29:00;21.01;71.59